createdAt,value
2022-12-31T00:00:02.422Z,0.60
2022-12-31T00:02:36.908Z,0.70
2022-12-31T00:05:04.628Z,0.73
2022-12-31T00:09:57.652Z,0.65
2022-12-31T00:12:24.303Z,0.60
2022-12-31T00:14:52.401Z,0.50
2022-12-31T00:17:38.200Z,0.50
2022-12-31T00:20:05.812Z,0.57
2022-12-31T00:22:32.423Z,0.70
2022-12-31T00:24:59.382Z,0.50
2022-12-31T00:27:37.316Z,0.50
2022-12-31T00:30:06.851Z,0.65
2022-12-31T00:32:38.886Z,0.70
2022-12-31T00:35:09.550Z,0.68
2022-12-31T00:37:36.236Z,0.90
2022-12-31T00:40:03.682Z,0.90
2022-12-31T00:42:30.290Z,0.95
2022-12-31T00:44:59.300Z,0.95
2022-12-31T00:47:27.582Z,1.00
2022-12-31T00:49:54.289Z,0.90
2022-12-31T00:52:26.591Z,1.00
2022-12-31T00:54:53.189Z,0.80
2022-12-31T00:57:19.829Z,0.90
2022-12-31T00:59:46.645Z,0.80
2022-12-31T01:02:13.403Z,1.00
2022-12-31T01:04:42.917Z,0.90
2022-12-31T01:07:09.542Z,0.70
2022-12-31T01:09:39.365Z,0.60
2022-12-31T01:12:06.869Z,0.80
2022-12-31T01:14:33.571Z,0.85
2022-12-31T01:17:00.226Z,0.90
2022-12-31T01:19:29.076Z,0.70
2022-12-31T01:22:01.500Z,0.73
2022-12-31T01:24:28.122Z,0.70
2022-12-31T01:26:54.790Z,0.77
2022-12-31T01:29:21.574Z,0.70
2022-12-31T01:31:50.325Z,0.70
2022-12-31T01:34:16.941Z,0.50
2022-12-31T01:36:43.991Z,0.60
2022-12-31T01:39:12.674Z,0.50
2022-12-31T01:41:43.278Z,0.60
2022-12-31T01:47:44.802Z,0.60
2022-12-31T01:50:16.813Z,0.70
2022-12-31T01:52:48.551Z,0.50
2022-12-31T01:55:20.319Z,0.60
2022-12-31T01:57:51.324Z,0.50
2022-12-31T02:00:18.718Z,0.50
2022-12-31T02:02:48.072Z,0.93
2022-12-31T02:05:24.052Z,0.55
2022-12-31T02:07:54.739Z,0.60
2022-12-31T02:10:23.036Z,0.55
2022-12-31T02:12:51.859Z,0.40
2022-12-31T02:15:50.236Z,0.40
2022-12-31T02:18:24.531Z,0.50
2022-12-31T02:21:20.791Z,0.50
2022-12-31T02:24:29.354Z,0.40
2022-12-31T02:27:02.921Z,0.40
2022-12-31T02:30:18.489Z,0.40
2022-12-31T02:33:02.367Z,0.35
2022-12-31T02:35:31.427Z,0.40
2022-12-31T02:38:03.200Z,0.40
2022-12-31T02:40:30.226Z,0.40
2022-12-31T02:42:56.858Z,0.40
2022-12-31T02:45:29.861Z,0.40
2022-12-31T02:48:16.412Z,0.40
2022-12-31T02:50:47.989Z,0.40
2022-12-31T02:53:28.795Z,0.40
2022-12-31T02:56:03.700Z,0.40
2022-12-31T02:58:38.138Z,0.40
2022-12-31T03:01:06.334Z,0.43
2022-12-31T03:03:34.190Z,0.35
2022-12-31T03:06:09.093Z,0.28
2022-12-31T03:08:36.122Z,0.50
2022-12-31T03:11:02.868Z,0.40
2022-12-31T03:13:29.732Z,0.40
2022-12-31T03:15:56.856Z,0.40
2022-12-31T03:18:24.851Z,0.40
2022-12-31T03:20:51.699Z,0.50
2022-12-31T03:23:21.745Z,0.45
2022-12-31T03:25:48.401Z,0.47
2022-12-31T03:28:17.362Z,0.40
2022-12-31T03:30:47.043Z,0.43
2022-12-31T03:33:14.165Z,0.40
2022-12-31T03:35:44.062Z,0.50
2022-12-31T03:38:11.342Z,0.40
2022-12-31T03:40:39.886Z,0.40
2022-12-31T03:43:06.869Z,0.40
2022-12-31T03:45:33.607Z,0.40
2022-12-31T03:48:00.799Z,0.35
2022-12-31T03:50:28.379Z,0.40
2022-12-31T03:52:56.607Z,0.50
2022-12-31T03:55:23.376Z,0.40
2022-12-31T03:57:50.171Z,0.80
2022-12-31T04:00:19.677Z,0.40
2022-12-31T04:02:46.714Z,0.40
2022-12-31T04:05:13.796Z,0.40
2022-12-31T04:07:40.803Z,0.45
2022-12-31T04:10:12.238Z,0.40
2022-12-31T04:12:40.598Z,0.40
2022-12-31T04:15:11.734Z,0.50
2022-12-31T04:17:38.479Z,0.40
2022-12-31T04:20:06.143Z,0.40
2022-12-31T04:22:32.766Z,0.40
2022-12-31T04:24:59.398Z,0.50
2022-12-31T04:27:27.910Z,0.40
2022-12-31T04:29:54.817Z,0.50
2022-12-31T04:32:24.647Z,0.50
2022-12-31T04:34:51.240Z,0.30
2022-12-31T04:37:18.533Z,0.40
2022-12-31T04:39:45.100Z,0.50
2022-12-31T04:42:12.220Z,0.40
2022-12-31T04:44:40.186Z,0.40
2022-12-31T04:47:07.766Z,0.40
2022-12-31T04:49:34.369Z,0.40
2022-12-31T04:52:00.915Z,0.40
2022-12-31T04:54:27.952Z,0.45
2022-12-31T04:56:55.022Z,0.40
2022-12-31T04:59:21.904Z,0.57
2022-12-31T05:01:50.062Z,0.50
2022-12-31T05:04:17.027Z,0.40
2022-12-31T05:06:43.652Z,0.60
2022-12-31T05:09:10.399Z,0.40
2022-12-31T05:11:37.056Z,0.50
2022-12-31T05:14:03.840Z,0.40
2022-12-31T05:16:30.407Z,0.50
2022-12-31T05:18:58.430Z,0.40
2022-12-31T05:21:24.998Z,0.50
2022-12-31T05:23:52.028Z,0.55
2022-12-31T05:26:18.747Z,0.50
2022-12-31T05:28:45.474Z,0.60
2022-12-31T05:31:12.824Z,0.40
2022-12-31T05:33:39.647Z,0.45
2022-12-31T05:36:08.164Z,0.40
2022-12-31T05:38:35.195Z,0.50
2022-12-31T05:41:03.217Z,0.50
2022-12-31T05:43:30.621Z,0.50
2022-12-31T05:45:59.823Z,0.60
2022-12-31T05:48:27.309Z,0.50
2022-12-31T05:50:54.045Z,0.50
2022-12-31T05:53:22.033Z,0.60
2022-12-31T05:55:48.864Z,0.50
2022-12-31T05:58:15.917Z,0.50
2022-12-31T06:00:42.883Z,0.55
2022-12-31T06:03:09.964Z,0.50
2022-12-31T06:05:43.116Z,0.53
2022-12-31T06:08:10.238Z,0.50
2022-12-31T06:10:39.230Z,0.50
2022-12-31T06:13:06.208Z,0.50
2022-12-31T06:15:32.953Z,0.70
2022-12-31T06:17:59.554Z,0.63
2022-12-31T06:20:29.255Z,0.50
2022-12-31T06:22:55.821Z,0.55
2022-12-31T06:25:22.398Z,0.70
2022-12-31T06:27:50.694Z,1.00
2022-12-31T06:30:20.380Z,0.60
2022-12-31T06:32:46.952Z,0.50
2022-12-31T06:35:13.593Z,0.82
2022-12-31T06:37:40.707Z,0.60
2022-12-31T06:40:08.751Z,0.50
2022-12-31T06:42:35.549Z,0.67
2022-12-31T06:45:04.954Z,0.70
2022-12-31T06:47:34.272Z,0.75
2022-12-31T06:50:00.894Z,0.50
2022-12-31T06:52:27.546Z,0.47
2022-12-31T06:54:54.945Z,0.60
2022-12-31T06:57:22.198Z,0.60
2022-12-31T06:59:49.576Z,0.70
2022-12-31T07:02:44.322Z,0.85
2022-12-31T07:05:26.820Z,0.70
2022-12-31T07:08:06.039Z,0.60
2022-12-31T07:10:42.175Z,0.60
2022-12-31T07:13:22.014Z,0.65
2022-12-31T07:16:00.752Z,0.95
2022-12-31T07:18:36.421Z,0.90
2022-12-31T07:21:03.575Z,0.70
2022-12-31T07:23:31.056Z,0.65
2022-12-31T07:26:06.773Z,0.52
2022-12-31T07:28:48.133Z,0.80
2022-12-31T07:31:25.538Z,0.60
2022-12-31T07:33:59.883Z,1.00
2022-12-31T07:36:43.175Z,0.60
2022-12-31T07:39:15.128Z,0.60
2022-12-31T07:41:52.937Z,0.80
2022-12-31T07:44:50.229Z,0.70
2022-12-31T07:47:22.373Z,0.43
2022-12-31T07:49:51.858Z,0.70
2022-12-31T07:52:20.175Z,0.80
2022-12-31T07:54:47.199Z,0.60
2022-12-31T07:57:16.362Z,0.75
2022-12-31T08:00:08.263Z,0.70
2022-12-31T08:03:01.320Z,0.70
2022-12-31T08:05:34.371Z,0.50
2022-12-31T08:08:18.099Z,0.60
2022-12-31T08:10:57.772Z,0.70
2022-12-31T08:13:27.732Z,0.70
2022-12-31T08:15:55.789Z,0.40
2022-12-31T08:18:22.915Z,0.60
2022-12-31T08:21:02.675Z,0.70
2022-12-31T08:23:34.769Z,0.60
2022-12-31T08:26:16.582Z,0.67
2022-12-31T08:28:55.028Z,0.60
2022-12-31T08:31:29.397Z,0.70
2022-12-31T08:34:07.769Z,0.75
2022-12-31T08:36:45.609Z,0.63
2022-12-31T08:39:21.348Z,0.80
2022-12-31T08:41:56.951Z,0.90
2022-12-31T08:44:34.352Z,0.85
2022-12-31T08:49:57.520Z,0.70
2022-12-31T08:52:27.437Z,0.73
2022-12-31T08:54:54.880Z,0.60
2022-12-31T08:57:32.061Z,0.82
2022-12-31T09:00:06.442Z,0.65
2022-12-31T09:03:03.597Z,0.77
2022-12-31T09:05:39.179Z,0.77
2022-12-31T09:08:27.171Z,0.70
2022-12-31T09:10:59.209Z,0.73
2022-12-31T09:13:36.216Z,0.68
2022-12-31T09:16:15.286Z,0.70
2022-12-31T09:18:47.198Z,0.70
2022-12-31T09:21:18.715Z,0.50
2022-12-31T09:23:47.717Z,0.68
2022-12-31T09:26:40.935Z,0.68
2022-12-31T09:29:17.164Z,0.90
2022-12-31T09:31:51.869Z,0.80
2022-12-31T09:34:27.014Z,0.60
2022-12-31T09:36:59.681Z,0.50
2022-12-31T09:39:37.318Z,0.65
2022-12-31T09:42:43.857Z,0.70
2022-12-31T09:46:02.163Z,0.80
2022-12-31T09:49:01.285Z,0.70
2022-12-31T09:51:45.688Z,0.70
2022-12-31T09:54:40.300Z,0.70
2022-12-31T09:57:25.044Z,0.80
2022-12-31T09:59:58.463Z,0.70
2022-12-31T10:02:45.880Z,0.90
2022-12-31T10:05:41.620Z,0.77
2022-12-31T10:08:29.306Z,0.70
2022-12-31T10:11:29.125Z,0.70
2022-12-31T10:14:10.468Z,1.07
2022-12-31T10:16:53.568Z,0.77
2022-12-31T10:19:43.308Z,0.77
2022-12-31T10:22:30.795Z,0.80
2022-12-31T10:25:39.580Z,0.80
2022-12-31T10:28:18.268Z,0.87
2022-12-31T10:31:03.469Z,0.80
2022-12-31T10:33:42.015Z,0.98
2022-12-31T10:36:17.222Z,0.70
2022-12-31T10:39:07.454Z,0.50
2022-12-31T10:42:17.443Z,1.00
2022-12-31T10:45:32.168Z,0.80
2022-12-31T10:48:24.629Z,0.85
2022-12-31T10:51:12.183Z,0.73
2022-12-31T10:54:12.870Z,0.70
2022-12-31T10:57:02.628Z,0.80
2022-12-31T10:59:55.340Z,0.90
2022-12-31T11:02:52.645Z,0.70
2022-12-31T11:05:56.200Z,0.60
2022-12-31T11:08:49.284Z,0.80
2022-12-31T11:11:31.069Z,0.80
2022-12-31T11:14:34.476Z,1.10
2022-12-31T11:17:29.689Z,0.93
2022-12-31T11:20:33.629Z,0.77
2022-12-31T11:23:13.005Z,0.80
2022-12-31T11:25:54.918Z,0.87
2022-12-31T11:28:39.029Z,0.70
2022-12-31T11:31:15.748Z,0.70
2022-12-31T11:33:59.033Z,0.85
2022-12-31T11:36:49.046Z,0.80
2022-12-31T11:39:38.439Z,0.80
2022-12-31T11:42:19.190Z,0.80
2022-12-31T11:44:54.095Z,0.70
2022-12-31T11:48:28.557Z,0.75
2022-12-31T11:50:49.930Z,0.85
2022-12-31T11:53:42.996Z,0.70
2022-12-31T11:56:23.745Z,0.88
2022-12-31T11:58:53.096Z,0.85
2022-12-31T12:01:24.938Z,0.90
2022-12-31T12:03:51.763Z,0.85
2022-12-31T12:06:25.205Z,0.80
2022-12-31T12:08:56.104Z,0.80
2022-12-31T12:11:25.838Z,1.10
2022-12-31T12:13:53.913Z,0.80
2022-12-31T12:16:21.981Z,0.70
2022-12-31T12:18:50.443Z,0.80
2022-12-31T12:21:25.058Z,0.80
2022-12-31T12:23:58.593Z,0.90
2022-12-31T12:26:33.445Z,0.68
2022-12-31T12:29:08.515Z,0.73
2022-12-31T12:31:38.342Z,0.90
2022-12-31T12:34:05.935Z,0.90
2022-12-31T12:36:32.660Z,1.08
2022-12-31T12:39:07.149Z,0.90
2022-12-31T12:41:34.395Z,0.80
2022-12-31T12:44:05.991Z,0.90
2022-12-31T12:46:53.767Z,0.80
2022-12-31T12:49:24.160Z,1.10
2022-12-31T12:52:33.190Z,1.20
2022-12-31T12:55:12.598Z,0.88
2022-12-31T12:57:48.666Z,1.20
2022-12-31T13:00:21.194Z,0.90
2022-12-31T13:03:20.675Z,1.02
2022-12-31T13:06:11.140Z,0.90
2022-12-31T13:08:57.255Z,0.82
2022-12-31T13:11:34.688Z,0.90
2022-12-31T13:14:15.880Z,0.93
2022-12-31T13:16:56.866Z,0.85
2022-12-31T13:19:33.523Z,0.90
2022-12-31T13:22:08.217Z,0.90
2022-12-31T13:24:52.278Z,0.80
2022-12-31T13:27:27.492Z,0.90
2022-12-31T13:29:59.264Z,0.88
2022-12-31T13:32:38.615Z,1.20
2022-12-31T13:35:24.958Z,1.00
2022-12-31T13:38:05.650Z,1.10
2022-12-31T13:40:58.819Z,0.90
2022-12-31T13:43:38.294Z,1.08
2022-12-31T13:46:18.099Z,1.15
2022-12-31T13:48:54.416Z,1.27
2022-12-31T13:51:40.066Z,0.90
2022-12-31T13:54:18.241Z,0.82
2022-12-31T13:56:48.227Z,0.80
2022-12-31T13:59:27.582Z,1.00
2022-12-31T14:01:59.076Z,0.98
2022-12-31T14:04:36.737Z,1.00
2022-12-31T14:07:16.036Z,1.10
2022-12-31T14:09:43.173Z,0.90
2022-12-31T14:12:21.820Z,1.10
2022-12-31T14:15:20.107Z,1.17
2022-12-31T14:18:04.324Z,1.10
2022-12-31T14:20:42.366Z,1.20
2022-12-31T14:23:21.494Z,1.30
2022-12-31T14:25:52.314Z,1.15
2022-12-31T14:28:30.450Z,0.93
2022-12-31T14:31:15.064Z,1.00
2022-12-31T14:33:59.855Z,1.25
2022-12-31T14:36:38.647Z,1.30
2022-12-31T14:39:32.763Z,1.08
2022-12-31T14:42:13.136Z,1.10
2022-12-31T14:44:53.463Z,1.20
2022-12-31T14:47:33.965Z,1.15
2022-12-31T14:50:14.994Z,1.10
2022-12-31T14:52:53.193Z,1.17
2022-12-31T14:55:31.326Z,1.10
2022-12-31T14:58:29.732Z,1.27
2022-12-31T15:00:59.947Z,1.10
2022-12-31T15:03:41.258Z,1.23
2022-12-31T15:06:48.139Z,1.20
2022-12-31T15:09:47.809Z,1.00
2022-12-31T15:12:39.787Z,1.20
2022-12-31T15:15:29.639Z,1.25
2022-12-31T15:18:16.255Z,1.52
2022-12-31T15:21:18.613Z,1.85
2022-12-31T15:23:58.690Z,1.10
2022-12-31T15:26:28.215Z,1.20
2022-12-31T15:29:09.720Z,1.10
2022-12-31T15:34:40.180Z,1.23
2022-12-31T15:37:45.319Z,1.00
2022-12-31T15:40:34.515Z,1.50
2022-12-31T15:43:19.343Z,1.15
2022-12-31T15:45:51.210Z,1.20
2022-12-31T15:48:24.740Z,0.90
2022-12-31T15:50:55.768Z,1.13
2022-12-31T15:54:07.724Z,1.20
2022-12-31T15:56:41.209Z,1.23
2022-12-31T15:59:38.511Z,1.40
2022-12-31T16:02:21.480Z,1.20
2022-12-31T16:04:49.426Z,1.00
2022-12-31T16:07:18.256Z,1.50
2022-12-31T16:09:51.198Z,1.20
2022-12-31T16:12:25.418Z,1.10
2022-12-31T16:14:57.892Z,1.17
2022-12-31T16:17:28.153Z,1.30
2022-12-31T16:19:58.896Z,1.17
2022-12-31T16:22:27.550Z,1.23
2022-12-31T16:25:28.901Z,1.02
2022-12-31T16:27:54.093Z,1.25
2022-12-31T16:30:26.118Z,1.15
2022-12-31T16:32:55.763Z,1.23
2022-12-31T16:35:24.913Z,1.48
2022-12-31T16:38:13.304Z,1.25
2022-12-31T16:40:44.760Z,1.00
2022-12-31T16:43:30.377Z,1.15
2022-12-31T16:46:06.498Z,1.10
2022-12-31T16:48:37.997Z,1.30
2022-12-31T16:51:05.930Z,1.10
2022-12-31T16:53:37.192Z,1.30
2022-12-31T16:56:07.733Z,1.30
2022-12-31T16:58:44.449Z,1.40
2022-12-31T17:01:18.465Z,1.08
2022-12-31T17:03:50.773Z,1.35
2022-12-31T17:06:21.382Z,1.70
2022-12-31T17:09:06.069Z,1.40
2022-12-31T17:11:43.634Z,1.67
2022-12-31T17:17:03.834Z,1.63
2022-12-31T17:19:40.847Z,1.48
2022-12-31T17:22:13.379Z,1.80
2022-12-31T17:24:40.673Z,2.03
2022-12-31T17:27:10.984Z,1.40
2022-12-31T17:29:52.512Z,1.50
2022-12-31T17:32:45.109Z,1.65
2022-12-31T17:35:28.938Z,1.67
2022-12-31T17:38:33.842Z,2.13
2022-12-31T17:41:15.412Z,1.40
2022-12-31T17:43:50.290Z,1.52
2022-12-31T17:46:21.332Z,1.70
2022-12-31T17:48:54.681Z,1.50
2022-12-31T17:51:24.276Z,1.60
2022-12-31T17:53:51.466Z,1.23
2022-12-31T17:56:19.712Z,1.40
2022-12-31T17:58:49.912Z,1.23
2022-12-31T18:01:20.271Z,1.27
2022-12-31T18:03:47.683Z,1.77
2022-12-31T18:06:17.004Z,1.30
2022-12-31T18:08:43.920Z,1.50
2022-12-31T18:11:15.842Z,1.40
2022-12-31T18:13:42.919Z,1.60
2022-12-31T18:16:09.583Z,1.60
2022-12-31T18:18:37.691Z,1.60
2022-12-31T18:21:07.479Z,1.45
2022-12-31T18:23:38.280Z,1.60
2022-12-31T18:26:05.287Z,1.33
2022-12-31T18:28:32.026Z,1.63
2022-12-31T18:30:59.198Z,1.40
2022-12-31T18:33:26.192Z,1.67
2022-12-31T18:36:12.422Z,1.70
2022-12-31T18:38:42.824Z,1.77
2022-12-31T18:41:18.311Z,1.60
2022-12-31T18:43:45.488Z,1.80
2022-12-31T18:46:12.929Z,1.80
2022-12-31T18:49:26.803Z,2.20
2022-12-31T18:51:55.143Z,1.70
2022-12-31T18:54:27.325Z,1.60
2022-12-31T18:56:57.146Z,1.38
2022-12-31T18:59:24.099Z,1.40
2022-12-31T19:01:51.086Z,1.90
2022-12-31T19:04:26.960Z,1.50
2022-12-31T19:06:55.957Z,1.40
2022-12-31T19:09:44.658Z,1.48
2022-12-31T19:12:12.879Z,1.63
2022-12-31T19:14:39.657Z,1.85
2022-12-31T19:19:32.042Z,1.60
2022-12-31T19:22:01.199Z,1.38
2022-12-31T19:24:28.505Z,1.75
2022-12-31T19:26:55.519Z,1.33
2022-12-31T19:29:25.205Z,1.80
2022-12-31T19:31:52.596Z,1.85
2022-12-31T19:34:19.443Z,1.70
2022-12-31T19:36:46.337Z,2.10
2022-12-31T19:39:18.022Z,1.53
2022-12-31T19:41:44.907Z,1.65
2022-12-31T19:44:15.389Z,1.80
2022-12-31T19:46:42.690Z,1.70
2022-12-31T19:49:10.949Z,1.88
2022-12-31T19:51:38.053Z,1.97
2022-12-31T19:54:04.958Z,1.77
2022-12-31T19:56:33.065Z,1.70
2022-12-31T19:59:06.359Z,1.63
2022-12-31T20:01:33.537Z,1.60
2022-12-31T20:04:00.659Z,1.70
2022-12-31T20:06:27.418Z,2.22
2022-12-31T20:08:54.140Z,1.38
2022-12-31T20:11:22.862Z,1.58
2022-12-31T20:13:52.677Z,1.67
2022-12-31T20:16:23.009Z,1.83
2022-12-31T20:18:50.132Z,1.27
2022-12-31T20:21:19.802Z,1.70
2022-12-31T20:23:48.127Z,1.60
2022-12-31T20:26:15.969Z,1.50
2022-12-31T20:28:42.800Z,1.60
2022-12-31T20:31:13.214Z,2.15
2022-12-31T20:33:40.789Z,1.65
2022-12-31T20:36:13.107Z,1.63
2022-12-31T20:38:40.221Z,1.92
2022-12-31T20:41:08.938Z,2.80
2022-12-31T20:43:36.409Z,1.52
2022-12-31T20:46:10.970Z,2.13
2022-12-31T20:48:43.484Z,1.90
2022-12-31T20:51:11.939Z,1.80
2022-12-31T20:53:38.734Z,2.00
2022-12-31T20:56:06.733Z,1.40
2022-12-31T20:58:33.703Z,1.80
2022-12-31T21:01:00.581Z,1.63
2022-12-31T21:04:03.609Z,2.00
2022-12-31T21:06:17.664Z,1.93
2022-12-31T21:08:44.868Z,1.50
2022-12-31T21:11:12.796Z,1.52
2022-12-31T21:13:39.448Z,2.38
2022-12-31T21:16:06.571Z,1.75
2022-12-31T21:18:33.365Z,1.57
2022-12-31T21:21:00.045Z,1.30
2022-12-31T21:23:29.913Z,2.03
2022-12-31T21:25:57.053Z,2.08
2022-12-31T21:28:24.199Z,2.42
2022-12-31T21:30:56.459Z,1.47
2022-12-31T21:33:23.151Z,1.80
2022-12-31T21:35:54.599Z,1.92
2022-12-31T21:38:22.830Z,1.80
2022-12-31T21:40:51.083Z,3.40
2022-12-31T21:43:18.091Z,1.57
2022-12-31T21:45:45.045Z,1.50
2022-12-31T21:48:13.300Z,1.80
2022-12-31T21:50:42.799Z,2.05
2022-12-31T21:53:09.420Z,2.20
2022-12-31T21:55:38.604Z,1.87
2022-12-31T22:00:57.194Z,2.22
2022-12-31T22:03:24.072Z,2.05
2022-12-31T22:05:57.613Z,1.60
2022-12-31T22:08:24.673Z,1.40
2022-12-31T22:10:52.930Z,1.50
2022-12-31T22:13:24.763Z,1.75
2022-12-31T22:15:56.332Z,1.75
2022-12-31T22:18:29.701Z,1.60
2022-12-31T22:21:17.804Z,1.70
2022-12-31T22:23:52.854Z,1.40
2022-12-31T22:26:24.334Z,1.50
2022-12-31T22:28:54.888Z,1.80
2022-12-31T22:31:23.288Z,1.60
2022-12-31T22:33:50.771Z,1.67
2022-12-31T22:36:26.969Z,1.40
2022-12-31T22:38:56.514Z,1.88
2022-12-31T22:41:24.929Z,1.75
2022-12-31T22:44:02.669Z,2.10
2022-12-31T22:46:30.404Z,1.90
2022-12-31T22:48:58.882Z,2.20
2022-12-31T22:51:54.800Z,2.25
2022-12-31T22:54:12.950Z,2.40
2022-12-31T22:56:39.773Z,2.53
2022-12-31T22:59:07.948Z,2.50
2022-12-31T23:01:34.792Z,2.15
2022-12-31T23:04:01.696Z,4.68
2022-12-31T23:06:29.246Z,6.65
2022-12-31T23:08:57.279Z,4.20
2022-12-31T23:11:29.847Z,6.77
2022-12-31T23:14:20.084Z,41.95
2022-12-31T23:16:48.751Z,4.47
2022-12-31T23:19:20.788Z,3.55
2022-12-31T23:21:50.297Z,4.75
2022-12-31T23:24:30.596Z,8.13
2022-12-31T23:27:16.079Z,9.07
2022-12-31T23:29:47.808Z,15.45
2022-12-31T23:32:28.101Z,30.60
2022-12-31T23:35:12.786Z,19.75
2022-12-31T23:37:41.443Z,17.70
2022-12-31T23:40:09.553Z,17.50
2022-12-31T23:42:36.375Z,16.20
2022-12-31T23:45:05.125Z,15.55
2022-12-31T23:47:31.791Z,16.15
2022-12-31T23:49:58.420Z,16.53
2022-12-31T23:52:25.302Z,14.98
2022-12-31T23:54:51.853Z,14.15
2022-12-31T23:57:18.636Z,15.30
2022-12-31T23:59:45.377Z,16.17
